Dededo, Guam
Current Conditions -  °F | °C
As of 1:54 PM on Friday 28 Nov 2014 (Local Time) from PGUM Reporting Station
Overcast Overcast  
Wind Chill: 82°   Ceiling: 4900
Heat Index: 90°   Visibility: 10mi
Dew Point: 77°   Wind: 10mph
Humidity: 85%   Direction: 60°ENE
Pressure: 29.83"   Gusts: NA
Location:  13.51°N, 144.84°E
Report Text: PGUM 280354Z 06009KT 10SM FEW026 BKN049 OVC060 28/25 A2983 RMK AO2 RAB03E51 SLP092 P0001 T02780250
Loading
Personal Weather Stations






























Interactive Weather Map New forecast layout! Learn more

10-Day Weather Forecast

Advertisements
Track Severe Weather on mobile